Time;durP1;ratioP1;P1;durP2;ratioP2;P2;SDS_P1;SDS_P2;PMS_P1;PMS_P2;Temp;Humidity;BMP_temperature;BMP_pressure;BME280_temperature;BME280_humidity;BME280_pressure;Samples;Min_cycle;Max_cycle;Signal;HPM_P1;HPM_P2
2021/07/13 00:01:44;;;;;;;9.05;6.50;;;;;;;30.69;43.97;101307.50;1520981;93;21105;-49
2021/07/13 00:04:11;;;;;;;8.63;6.30;;;;;;;30.69;43.86;101297.25;1529632;93;21133;-45
2021/07/13 00:06:39;;;;;;;7.87;6.12;;;;;;;30.68;43.89;101295.57;1526390;93;21165;-48
2021/07/13 00:09:06;;;;;;;7.15;6.45;;;;;;;30.68;44.18;101294.23;1533514;93;21204;-45
2021/07/13 00:11:34;;;;;;;8.23;5.83;;;;;;;30.70;44.53;101296.27;1534294;93;21573;-48
2021/07/13 00:14:04;;;;;;;7.22;6.00;;;;;;;30.66;44.90;101296.22;1529743;93;21080;-47
2021/07/13 00:16:32;;;;;;;7.10;6.08;;;;;;;30.64;45.04;101295.03;1538418;91;21144;-45
2021/07/13 00:19:00;;;;;;;6.97;6.35;;;;;;;30.61;45.07;101292.62;1542240;90;21069;-48
2021/07/13 00:21:27;;;;;;;6.75;6.00;;;;;;;30.63;44.99;101284.41;1584440;88;21077;-46
2021/07/13 00:23:55;;;;;;;6.70;5.78;;;;;;;30.61;45.21;101286.41;1630013;87;21081;-45
2021/07/13 00:26:22;;;;;;;6.45;5.85;;;;;;;30.61;45.41;101284.57;1616982;88;21033;-48
2021/07/13 00:28:48;;;;;;;7.00;6.30;;;;;;;30.63;45.55;101285.75;1638429;86;21052;-48
2021/07/13 00:31:15;;;;;;;8.70;6.78;;;;;;;30.64;45.43;101287.46;1641415;87;21156;-48
2021/07/13 00:33:43;;;;;;;8.40;6.90;;;;;;;30.67;45.51;101291.17;1636670;87;21071;-48
2021/07/13 00:36:09;;;;;;;8.50;6.67;;;;;;;30.67;45.66;101292.03;1639725;86;21060;-46
2021/07/13 00:38:36;;;;;;;10.38;6.80;;;;;;;30.69;45.74;101292.73;1584436;88;21051;-47
2021/07/13 00:41:03;;;;;;;9.83;8.38;;;;;;;30.69;45.57;101290.04;1642400;87;21545;-48
2021/07/13 00:43:31;;;;;;;12.95;7.33;;;;;;;30.68;45.49;101282.14;1639270;86;21063;-45
2021/07/13 00:46:00;;;;;;;9.23;7.28;;;;;;;30.66;45.61;101284.13;1640940;86;21196;-50
2021/07/13 00:48:27;;;;;;;10.05;7.92;;;;;;;30.64;45.75;101280.75;1640462;87;21542;-46
2021/07/13 00:50:54;;;;;;;10.95;7.78;;;;;;;30.61;46.16;101283.72;1612611;87;21096;-49
2021/07/13 00:53:21;;;;;;;7.87;7.05;;;;;;;30.58;46.44;101284.03;1640337;86;21047;-49
2021/07/13 00:55:48;;;;;;;10.00;7.10;;;;;;;30.53;46.58;101277.27;1637827;87;21071;-48
2021/07/13 00:58:14;;;;;;;8.68;6.80;;;;;;;30.49;46.84;101274.53;1642646;87;21075;-48
2021/07/13 01:00:42;;;;;;;9.28;6.87;;;;;;;30.48;46.94;101276.86;1640768;87;21059;-48
2021/07/13 01:03:08;;;;;;;8.50;7.70;;;;;;;30.46;47.26;101275.30;1637008;87;21044;-48
2021/07/13 01:05:42;;;;;;;8.48;7.25;;;;;;;30.44;47.76;101271.44;1638400;87;21040;-48
2021/07/13 01:08:31;;;;;;;12.40;8.20;;;;;;;30.43;48.26;101264.88;1575055;89;21046;-47
2021/07/13 01:11:27;;;;;;;11.65;8.15;;;;;;;30.41;48.58;101259.66;1485112;94;21131;-49
2021/07/13 01:14:12;;;;;;;9.48;7.70;;;;;;;30.41;48.75;101259.66;1499879;93;21068;-47
2021/07/13 01:16:57;;;;;;;13.00;8.38;;;;;;;30.39;49.00;101252.25;1479804;96;21143;-52
2021/07/13 01:20:03;;;;;;;9.03;7.75;;;;;;;30.37;49.41;101258.27;1477216;95;21138;-46
2021/07/13 01:22:42;;;;;;;10.05;7.55;;;;;;;30.38;49.60;101257.26;1473562;96;21105;-46
2021/07/13 01:25:33;;;;;;;9.03;7.78;;;;;;;30.37;49.74;101254.73;1442626;99;21091;-49
2021/07/13 01:28:18;;;;;;;8.70;7.92;;;;;;;30.36;49.83;101247.16;1444243;99;21634;-46
2021/07/13 01:30:50;;;;;;;14.35;9.08;;;;;;;30.35;49.84;101244.14;1447390;97;21098;-46
2021/07/13 01:33:22;;;;;;;9.83;8.15;;;;;;;30.35;49.93;101245.98;1460080;97;21093;-47
2021/07/13 01:36:08;;;;;;;8.75;7.85;;;;;;;30.33;49.98;101245.28;1458768;98;21112;-46
2021/07/13 01:38:41;;;;;;;8.30;7.58;;;;;;;30.33;49.85;101248.82;1459716;98;21560;-49
2021/07/13 01:41:12;;;;;;;8.90;8.00;;;;;;;30.33;49.78;101251.51;1452748;96;21195;-50
2021/07/13 01:43:41;;;;;;;9.03;8.15;;;;;;;30.34;49.86;101259.89;1458373;98;21172;-49
2021/07/13 01:46:11;;;;;;;10.28;8.58;;;;;;;30.34;50.18;101249.16;1460191;98;21660;-46
2021/07/13 01:48:40;;;;;;;8.83;8.03;;;;;;;30.34;50.65;101253.18;1471498;96;21583;-49
2021/07/13 01:51:08;;;;;;;11.60;8.40;;;;;;;30.35;51.08;101250.86;1478724;96;21095;-49
2021/07/13 01:53:36;;;;;;;10.53;8.65;;;;;;;30.36;51.31;101254.37;1463126;92;21085;-50
2021/07/13 01:56:04;;;;;;;8.98;8.15;;;;;;;30.36;51.34;101255.22;1558136;90;21118;-49
2021/07/13 01:58:32;;;;;;;10.32;9.03;;;;;;;30.37;51.33;101255.58;1583083;89;21076;-48
2021/07/13 02:01:04;;;;;;;13.43;8.93;;;;;;;30.37;51.43;101262.30;1588323;88;21085;-46
2021/07/13 02:03:31;;;;;;;11.33;8.83;;;;;;;30.37;51.44;101255.58;1596908;89;21058;-50
2021/07/13 02:06:00;;;;;;;10.55;8.23;;;;;;;30.35;51.33;101254.89;1599271;88;21118;-47
2021/07/13 02:08:26;;;;;;;9.28;8.10;;;;;;;30.35;51.27;101254.89;1617840;88;21094;-47
2021/07/13 02:10:53;;;;;;;10.82;7.97;;;;;;;30.32;51.09;101259.20;1606587;88;21107;-46
2021/07/13 02:13:21;;;;;;;9.78;8.10;;;;;;;30.29;51.02;101263.54;1641200;86;21032;-50
2021/07/13 02:15:50;;;;;;;8.73;7.85;;;;;;;30.31;50.79;101264.72;1642426;87;21055;-47
2021/07/13 02:18:18;;;;;;;9.28;7.72;;;;;;;30.31;50.51;101274.13;1639603;87;21092;-50
2021/07/13 02:20:46;;;;;;;8.80;7.90;;;;;;;30.30;50.36;101281.32;1638205;86;21052;-45
2021/07/13 02:23:13;;;;;;;10.55;8.48;;;;;;;30.30;50.52;101281.32;1638943;87;21091;-47
2021/07/13 02:25:41;;;;;;;8.85;8.05;;;;;;;30.29;50.53;101285.02;1639665;87;21088;-44
2021/07/13 02:28:18;;;;;;;10.98;9.35;;;;;;;30.26;50.67;101281.23;1619579;87;21045;-48
2021/07/13 02:30:48;;;;;;;12.40;11.15;;;;;;;30.25;51.06;101278.19;1640733;87;21032;-46
2021/07/13 02:33:21;;;;;;;13.70;10.98;;;;;;;30.22;51.46;101281.18;1640049;86;21083;-45
2021/07/13 02:35:52;;;;;;;15.95;12.88;;;;;;;30.20;51.65;101285.84;1621326;87;21529;-45
2021/07/13 02:38:19;;;;;;;19.42;12.65;;;;;;;30.19;51.82;101286.83;1637682;86;21040;-44
2021/07/13 02:40:48;;;;;;;14.00;12.53;;;;;;;30.18;51.73;101288.33;1633619;85;21013;-46
2021/07/13 02:43:15;;;;;;;16.67;13.68;;;;;;;30.17;51.58;101285.30;1614165;88;21078;-46
2021/07/13 02:45:42;;;;;;;16.42;12.88;;;;;;;30.16;51.66;101289.82;1619004;87;21056;-46
2021/07/13 02:48:10;;;;;;;16.20;12.60;;;;;;;30.14;51.66;101291.81;1630312;87;21569;-47
2021/07/13 02:50:37;;;;;;;14.10;12.45;;;;;;;30.11;51.61;101298.80;1639860;87;21004;-45
2021/07/13 02:53:07;;;;;;;17.35;13.40;;;;;;;30.08;51.70;101285.68;1620441;86;21049;-44
2021/07/13 02:55:35;;;;;;;14.43;12.95;;;;;;;30.07;51.77;101294.71;1591753;88;21078;-45
2021/07/13 02:58:02;;;;;;;14.87;13.50;;;;;;;30.06;51.77;101305.11;1635251;87;21049;-47
2021/07/13 03:00:29;;;;;;;18.37;14.90;;;;;;;30.05;51.89;101308.77;1616193;87;21562;-45
2021/07/13 03:02:56;;;;;;;16.65;14.55;;;;;;;30.05;51.91;101311.45;1639085;87;21499;-45
2021/07/13 03:05:25;;;;;;;15.75;14.00;;;;;;;30.05;51.85;101307.42;1623511;86;21073;-47
2021/07/13 03:07:51;;;;;;;15.63;14.03;;;;;;;30.05;51.55;101300.72;1638196;86;21100;-45
2021/07/13 03:10:24;;;;;;;16.45;14.60;;;;;;;30.03;51.48;101310.75;1636760;86;21587;-47
2021/07/13 03:12:51;;;;;;;17.20;14.33;;;;;;;30.00;51.48;101307.03;1631214;85;21090;-47
2021/07/13 03:15:27;;;;;;;16.60;14.90;;;;;;;29.99;51.44;101303.12;1619348;88;21053;-48
2021/07/13 03:17:54;;;;;;;15.75;13.83;;;;;;;29.97;51.44;101305.97;1517577;93;21681;-49
2021/07/13 03:20:25;;;;;;;17.95;15.55;;;;;;;29.96;51.50;101304.78;1538172;92;21265;-46
2021/07/13 03:22:52;;;;;;;16.30;14.78;;;;;;;29.96;51.50;101306.97;1535864;92;21093;-46
2021/07/13 03:25:26;;;;;;;18.45;15.50;;;;;;;29.95;51.55;101311.97;1540467;92;21631;-45
2021/07/13 03:27:53;;;;;;;18.25;14.43;;;;;;;29.95;51.59;101306.61;1507441;94;21123;-48
2021/07/13 03:30:20;;;;;;;15.65;13.98;;;;;;;29.92;51.66;101301.55;1536665;92;21092;-48
2021/07/13 03:32:49;;;;;;;15.88;14.23;;;;;;;29.91;51.50;101303.01;1543585;92;21124;-48
2021/07/13 03:35:16;;;;;;;16.27;14.35;;;;;;;29.90;51.41;101307.55;1466669;94;21100;-48
2021/07/13 03:37:43;;;;;;;18.57;14.43;;;;;;;29.92;51.28;101305.57;1517291;92;21117;-46
2021/07/13 03:40:14;;;;;;;20.40;14.35;;;;;;;29.92;51.29;101308.73;1515029;93;21132;-45
2021/07/13 03:42:41;;;;;;;16.20;14.20;;;;;;;29.93;51.32;101311.76;1540749;92;21080;-47
2021/07/13 03:45:10;;;;;;;14.85;13.28;;;;;;;29.98;51.20;101307.67;1523430;93;21135;-46
2021/07/13 03:47:38;;;;;;;14.87;12.55;;;;;;;30.05;51.27;101308.77;1500322;92;21076;-48
2021/07/13 03:50:06;;;;;;;15.28;13.53;;;;;;;30.20;51.02;101314.03;1543070;92;21564;-49
2021/07/13 03:52:33;;;;;;;14.10;12.60;;;;;;;30.38;50.47;101319.51;1539047;92;21576;-48
2021/07/13 03:55:00;;;;;;;12.88;11.57;;;;;;;30.53;50.21;101314.87;1518748;93;21144;-45
2021/07/13 03:57:26;;;;;;;13.15;11.70;;;;;;;30.73;49.81;101316.13;1537535;92;21564;-51
2021/07/13 03:59:54;;;;;;;16.75;11.55;;;;;;;30.99;48.66;101311.77;1539020;92;21065;-44
2021/07/13 04:02:21;;;;;;;12.25;11.00;;;;;;;31.30;47.65;101309.07;1543861;92;21149;-46
2021/07/13 04:04:47;;;;;;;12.00;10.63;;;;;;;31.64;46.53;101303.84;1540382;92;21537;-49
2021/07/13 04:07:15;;;;;;;13.08;10.30;;;;;;;31.89;45.29;101297.16;1539421;93;21054;-48
2021/07/13 04:09:42;;;;;;;17.30;11.63;;;;;;;32.04;44.62;101296.97;1536173;93;21093;-48
2021/07/13 04:12:10;;;;;;;13.68;12.18;;;;;;;32.09;44.05;101291.94;1539242;92;21149;-46
2021/07/13 04:14:38;;;;;;;16.57;12.33;;;;;;;32.06;43.78;101296.80;1564145;88;21553;-48
2021/07/13 04:17:05;;;;;;;31.15;13.85;;;;;;;31.99;43.72;101301.12;1637530;86;21028;-45
2021/07/13 04:19:32;;;;;;;68.22;16.85;;;;;;;31.87;43.89;101295.13;1623293;87;21117;-48
2021/07/13 04:22:01;;;;;;;39.83;15.20;;;;;;;31.74;44.16;101301.41;1636974;87;21559;-50
2021/07/13 04:24:28;;;;;;;18.95;13.08;;;;;;;31.58;44.46;101295.91;1639715;86;20996;-49
2021/07/13 04:26:55;;;;;;;22.02;13.03;;;;;;;31.44;44.85;101307.70;1619698;87;21053;-44
2021/07/13 04:29:22;;;;;;;16.52;13.00;;;;;;;31.29;45.31;101301.98;1641663;86;21044;-49
2021/07/13 04:31:49;;;;;;;13.98;11.28;;;;;;;31.16;45.75;101302.36;1621835;87;21535;-49
2021/07/13 04:34:16;;;;;;;12.93;9.73;;;;;;;31.05;46.21;101305.29;1638168;86;21047;-52
2021/07/13 04:36:43;;;;;;;18.82;9.65;;;;;;;30.95;46.51;101295.59;1641525;86;21044;-48
2021/07/13 04:39:10;;;;;;;12.78;9.75;;;;;;;30.88;46.73;101309.27;1639562;86;21055;-45
2021/07/13 04:41:36;;;;;;;10.38;9.38;;;;;;;30.81;46.87;101314.88;1635683;87;21032;-49
2021/07/13 04:44:03;;;;;;;13.32;8.83;;;;;;;30.77;47.12;101317.52;1636753;86;21036;-49
2021/07/13 04:46:30;;;;;;;10.20;8.78;;;;;;;30.73;47.34;101315.61;1638222;86;21067;-45
2021/07/13 04:48:58;;;;;;;11.80;8.55;;;;;;;30.71;47.44;101322.16;1638293;87;21028;-49
2021/07/13 04:51:24;;;;;;;12.18;9.50;;;;;;;30.68;47.37;101317.06;1642517;87;21531;-50
2021/07/13 04:53:52;;;;;;;9.95;8.90;;;;;;;30.67;47.51;101317.55;1642302;87;21112;-47
2021/07/13 04:56:18;;;;;;;9.10;8.28;;;;;;;30.63;47.60;101317.50;1638626;87;21191;-49
2021/07/13 04:58:45;;;;;;;9.25;8.35;;;;;;;30.59;47.50;101324.16;1638243;86;21076;-46
2021/07/13 05:01:12;;;;;;;10.90;9.48;;;;;;;30.58;47.46;101325.17;1636404;87;21044;-49
2021/07/13 05:03:39;;;;;;;11.83;8.68;;;;;;;30.60;47.22;101333.08;1639900;87;21080;-46
2021/07/13 05:06:07;;;;;;;18.23;9.05;;;;;;;30.61;46.86;101335.61;1642273;87;21044;-45
2021/07/13 05:08:34;;;;;;;12.03;8.40;;;;;;;30.65;46.62;101336.15;1640516;87;21088;-52
2021/07/13 05:11:01;;;;;;;12.35;8.60;;;;;;;30.68;46.49;101344.78;1632241;87;21103;-50
2021/07/13 05:13:28;;;;;;;11.93;8.65;;;;;;;30.70;46.54;101347.31;1639471;86;21076;-48
2021/07/13 05:15:55;;;;;;;9.70;8.60;;;;;;;30.72;46.66;101351.55;1636587;87;21194;-47
2021/07/13 05:18:21;;;;;;;10.43;8.60;;;;;;;30.75;46.63;101347.72;1635419;87;21071;-46
2021/07/13 05:20:55;;;;;;;10.00;8.70;;;;;;;30.80;46.25;101349.45;1637224;86;21591;-45
2021/07/13 05:23:18;;;;;;;9.18;8.33;;;;;;;30.83;46.03;101359.39;1637682;86;21515;-49
2021/07/13 05:25:45;;;;;;;10.10;9.03;;;;;;;30.88;45.81;101357.16;1641196;87;21020;-46
2021/07/13 05:28:12;;;;;;;11.12;8.08;;;;;;;30.92;45.92;101350.48;1640939;86;21028;-49
2021/07/13 05:30:41;;;;;;;8.88;7.97;;;;;;;30.96;45.54;101357.73;1638568;87;21075;-47
2021/07/13 05:33:09;;;;;;;13.10;8.48;;;;;;;30.99;45.45;101350.73;1637387;87;21055;-49
2021/07/13 05:35:36;;;;;;;13.05;9.68;;;;;;;31.04;45.31;101361.86;1639344;87;21103;-50
2021/07/13 05:38:03;;;;;;;10.58;8.15;;;;;;;31.09;44.99;101352.86;1640349;87;21087;-48
2021/07/13 05:40:30;;;;;;;10.63;7.97;;;;;;;31.12;45.00;101356.58;1618884;87;21113;-48
2021/07/13 05:42:57;;;;;;;10.50;7.83;;;;;;;31.15;45.24;101367.90;1605637;88;21086;-48
2021/07/13 05:45:24;;;;;;;7.95;7.17;;;;;;;31.21;45.00;101361.06;1615377;88;21060;-50
2021/07/13 05:47:51;;;;;;;8.73;7.70;;;;;;;31.24;44.87;101364.80;1603553;88;21091;-48
2021/07/13 05:50:20;;;;;;;10.35;8.83;;;;;;;31.27;44.82;101365.34;1608314;88;21523;-48
2021/07/13 05:52:47;;;;;;;9.80;8.48;;;;;;;31.30;44.84;101358.82;1608473;88;21098;-50
2021/07/13 05:55:14;;;;;;;10.20;8.30;;;;;;;31.35;44.77;101359.72;1615315;88;21111;-50
2021/07/13 05:57:40;;;;;;;11.38;7.95;;;;;;;31.38;44.82;101361.59;1613890;88;21023;-48
2021/07/13 06:00:09;;;;;;;12.07;8.05;;;;;;;31.43;45.00;101364.68;1612676;87;21059;-49
2021/07/13 06:02:44;;;;;;;8.65;7.75;;;;;;;31.51;44.91;101355.34;1612117;88;21590;-49
2021/07/13 06:05:11;;;;;;;9.10;8.30;;;;;;;31.57;44.53;101354.76;1613581;88;21083;-49
2021/07/13 06:07:45;;;;;;;11.15;8.08;;;;;;;31.62;44.51;101349.74;1613514;88;21059;-50
2021/07/13 06:10:12;;;;;;;9.90;8.48;;;;;;;31.68;44.30;101349.13;1587309;89;21588;-48
2021/07/13 06:12:40;;;;;;;12.75;7.83;;;;;;;31.77;44.35;101358.97;1583185;89;21050;-48
2021/07/13 06:15:10;;;;;;;9.98;8.10;;;;;;;31.85;44.34;101352.80;1582849;89;21058;-50
2021/07/13 06:17:41;;;;;;;10.85;7.85;;;;;;;31.94;44.17;101356.77;1581822;89;21592;-49
2021/07/13 06:20:12;;;;;;;11.97;8.45;;;;;;;32.04;44.06;101358.89;1581006;89;21512;-52
2021/07/13 06:22:39;;;;;;;9.33;8.25;;;;;;;32.17;44.15;101360.33;1582023;89;21017;-48
2021/07/13 06:25:08;;;;;;;11.08;8.40;;;;;;;32.27;43.71;101350.29;1551148;90;21084;-52
2021/07/13 06:27:35;;;;;;;10.90;8.15;;;;;;;32.36;43.58;101354.70;1559395;90;21580;-49
2021/07/13 06:30:07;;;;;;;13.55;8.38;;;;;;;32.44;43.54;101357.47;1575796;90;21049;-50
2021/07/13 06:32:33;;;;;;;12.43;9.83;;;;;;;32.46;43.61;101354.15;1554236;91;21522;-50
2021/07/13 06:35:01;;;;;;;13.13;9.03;;;;;;;32.47;43.76;101359.37;1542923;91;21039;-48
2021/07/13 06:37:27;;;;;;;9.30;8.20;;;;;;;32.44;43.57;101354.78;1572099;89;21108;-51
2021/07/13 06:39:55;;;;;;;10.68;7.80;;;;;;;32.43;43.76;101357.11;1588754;89;21069;-51
2021/07/13 06:42:22;;;;;;;9.33;8.08;;;;;;;32.42;43.94;101355.44;1580326;90;21070;-47
2021/07/13 06:44:49;;;;;;;11.08;8.28;;;;;;;32.43;43.43;101363.84;1585336;89;21123;-51
2021/07/13 06:47:16;;;;;;;13.95;8.60;;;;;;;32.43;43.48;101362.50;1581614;89;21122;-47
2021/07/13 06:49:42;;;;;;;10.70;7.67;;;;;;;32.51;43.63;101349.11;1581954;89;21060;-50
2021/07/13 06:52:09;;;;;;;9.93;8.28;;;;;;;32.48;43.55;101352.14;1583115;89;21088;-50
2021/07/13 06:54:36;;;;;;;9.60;7.60;;;;;;;32.51;43.62;101358.53;1581210;89;21050;-48
2021/07/13 06:57:04;;;;;;;10.60;8.20;;;;;;;32.55;43.69;101365.30;1589549;89;21109;-50
2021/07/13 06:59:31;;;;;;;11.50;8.45;;;;;;;32.56;43.30;101364.30;1587507;89;21085;-48
2021/07/13 07:01:57;;;;;;;8.60;7.80;;;;;;;32.64;43.32;101367.89;1583031;89;21647;-49
2021/07/13 07:04:24;;;;;;;8.85;7.62;;;;;;;32.66;43.35;101368.58;1588754;89;21577;-49
2021/07/13 07:06:51;;;;;;;9.45;8.43;;;;;;;32.72;43.26;101368.42;1584347;89;21031;-47
2021/07/13 07:09:18;;;;;;;9.78;8.30;;;;;;;32.73;43.24;101374.14;1562283;91;21062;-50
2021/07/13 07:11:45;;;;;;;9.75;8.63;;;;;;;32.75;43.46;101380.21;1559339;90;21021;-49
2021/07/13 07:14:13;;;;;;;8.88;8.05;;;;;;;32.77;43.57;101372.81;1583505;89;21042;-47
2021/07/13 07:16:41;;;;;;;10.38;9.13;;;;;;;32.81;43.51;101371.48;1592480;89;21026;-48
2021/07/13 07:19:10;;;;;;;9.30;8.50;;;;;;;32.79;43.42;101370.30;1594373;89;21017;-49
2021/07/13 07:21:37;;;;;;;12.60;8.88;;;;;;;32.79;43.27;101373.48;1589223;90;21073;-49
2021/07/13 07:24:04;;;;;;;10.75;8.83;;;;;;;32.81;43.20;101366.08;1596398;89;21035;-52
2021/07/13 07:26:31;;;;;;;20.77;11.20;;;;;;;32.75;43.50;101368.94;1589404;90;21117;-49
2021/07/13 07:28:58;;;;;;;10.40;8.78;;;;;;;32.78;43.58;101374.52;1590499;90;21070;-49
2021/07/13 07:31:25;;;;;;;15.20;9.38;;;;;;;32.77;43.42;101370.97;1590203;90;21050;-50
2021/07/13 07:33:52;;;;;;;11.43;8.70;;;;;;;32.78;43.59;101374.52;1590936;90;21054;-48
2021/07/13 07:36:20;;;;;;;10.50;9.20;;;;;;;32.81;43.73;101376.87;1593375;88;21080;-48
2021/07/13 07:38:47;;;;;;;12.45;9.10;;;;;;;32.84;43.65;101380.60;1592709;88;21087;-46
2021/07/13 07:41:14;;;;;;;9.95;8.63;;;;;;;33.00;43.26;101379.84;1588251;88;21682;-49
2021/07/13 07:43:42;;;;;;;13.83;9.53;;;;;;;33.07;42.99;101387.14;1598930;89;21066;-49
2021/07/13 07:46:09;;;;;;;14.00;9.78;;;;;;;33.10;42.94;101386.80;1591174;89;21006;-48
2021/07/13 07:48:37;;;;;;;10.32;9.38;;;;;;;33.10;42.59;101382.75;1595532;88;21050;-47
2021/07/13 07:51:04;;;;;;;12.47;9.83;;;;;;;33.14;42.52;101380.06;1595197;88;21034;-50
2021/07/13 07:53:30;;;;;;;12.33;9.60;;;;;;;33.60;41.82;101375.48;1595091;90;21038;-49
2021/07/13 07:55:57;;;;;;;13.50;10.10;;;;;;;31.59;45.95;101392.27;1619074;88;21107;-49
2021/07/13 07:58:25;;;;;;;14.00;10.30;;;;;;;31.10;47.32;101390.83;1592753;90;21109;-51
2021/07/13 08:00:51;;;;;;;11.83;10.63;;;;;;;30.98;47.83;101389.34;1617624;88;21072;-50
2021/07/13 08:03:18;;;;;;;12.13;10.90;;;;;;;30.92;47.99;101392.63;1602324;89;21073;-50
2021/07/13 08:05:45;;;;;;;13.28;10.63;;;;;;;30.89;47.90;101392.94;1588290;89;21104;-50
2021/07/13 08:08:12;;;;;;;12.00;10.90;;;;;;;30.87;47.85;101393.06;1596939;89;21016;-52
2021/07/13 08:10:41;;;;;;;17.55;10.45;;;;;;;30.88;47.98;101396.61;1601524;89;21578;-49
2021/07/13 08:13:08;;;;;;;14.73;10.10;;;;;;;30.91;47.80;101393.64;1619096;88;21024;-50
2021/07/13 08:15:36;;;;;;;11.30;10.15;;;;;;;30.92;47.46;101392.63;1618354;88;21724;-47
2021/07/13 08:18:05;;;;;;;11.05;9.98;;;;;;;30.95;47.30;101392.34;1623201;87;21053;-49
2021/07/13 08:20:31;;;;;;;11.85;10.03;;;;;;;30.98;47.59;101392.03;1614572;87;21126;-49
2021/07/13 08:22:59;;;;;;;11.15;10.00;;;;;;;31.01;47.44;101391.75;1615734;88;21124;-47
2021/07/13 08:25:26;;;;;;;11.45;10.05;;;;;;;31.01;47.38;101391.75;1620843;86;21560;-49
2021/07/13 08:27:52;;;;;;;10.15;9.30;;;;;;;31.00;47.23;101392.73;1603933;87;21013;-50
2021/07/13 08:30:19;;;;;;;11.12;9.43;;;;;;;31.00;47.35;101392.73;1597717;89;21101;-50
2021/07/13 08:32:46;;;;;;;11.63;9.98;;;;;;;30.97;47.23;101386.32;1598122;89;21492;-48
2021/07/13 08:35:13;;;;;;;11.40;9.60;;;;;;;30.97;47.56;101389.02;1594108;89;20997;-51
2021/07/13 08:37:40;;;;;;;9.88;8.85;;;;;;;30.97;47.29;101393.90;1602371;87;21634;-51
2021/07/13 08:40:09;;;;;;;9.63;8.53;;;;;;;30.96;47.66;101384.62;1609367;88;21513;-51
2021/07/13 08:42:39;;;;;;;11.47;8.40;;;;;;;31.02;47.51;101387.56;1596902;88;21021;-52
2021/07/13 08:45:09;;;;;;;10.82;9.60;;;;;;;31.09;47.55;101391.84;1580026;89;21114;-50
2021/07/13 08:47:38;;;;;;;10.68;9.68;;;;;;;31.15;47.72;101388.55;1597565;87;21060;-48
2021/07/13 08:50:06;;;;;;;11.03;9.53;;;;;;;31.22;47.38;101400.41;1601611;87;21509;-50
2021/07/13 08:52:34;;;;;;;10.23;9.18;;;;;;;31.24;46.91;101395.73;1597712;89;21034;-51
2021/07/13 08:55:02;;;;;;;11.18;9.50;;;;;;;31.25;46.70;101400.09;1600994;88;21566;-51
2021/07/13 08:57:28;;;;;;;10.48;9.48;;;;;;;31.22;46.53;101400.41;1608581;89;21065;-48
2021/07/13 08:59:55;;;;;;;10.45;9.38;;;;;;;31.18;46.47;101403.05;1594552;89;21033;-49
2021/07/13 09:02:22;;;;;;;10.68;8.88;;;;;;;31.17;46.71;101401.34;1614873;87;21049;-51
2021/07/13 09:04:48;;;;;;;12.75;9.10;;;;;;;31.17;46.89;101404.03;1599200;88;21348;-50
2021/07/13 09:07:18;;;;;;;12.58;9.45;;;;;;;31.18;46.47;101405.74;1573683;89;21026;-50
2021/07/13 09:09:48;;;;;;;11.83;9.30;;;;;;;31.17;46.47;101400.00;1593200;89;21067;-49
2021/07/13 09:12:22;;;;;;;13.50;8.73;;;;;;;31.15;46.49;101402.84;1603902;89;21117;-50
2021/07/13 09:15:01;;;;;;;9.68;8.38;;;;;;;31.13;46.40;101400.81;1588197;88;20970;-50
2021/07/13 09:17:44;;;;;;;9.35;8.45;;;;;;;31.11;46.77;101404.64;1594301;89;21078;-52
2021/07/13 09:20:31;;;;;;;9.63;8.63;;;;;;;31.12;47.06;101409.00;1610224;89;21075;-52
2021/07/13 09:23:03;;;;;;;15.05;9.43;;;;;;;31.16;46.72;101403.70;1601238;87;21042;-49
2021/07/13 09:25:44;;;;;;;12.20;9.00;;;;;;;31.21;46.93;101404.08;1593177;89;21544;-48
2021/07/13 09:28:21;;;;;;;14.83;9.18;;;;;;;31.27;47.18;101408.86;1605618;88;21059;-49
2021/07/13 09:30:55;;;;;;;59.77;12.00;;;;;;;31.34;47.25;101408.61;1586379;89;21016;-48
2021/07/13 09:33:34;;;;;;;13.88;7.72;;;;;;;31.42;47.52;101402.01;1599508;87;21060;-49
2021/07/13 09:38:45;;;;;;;;;;;;;;;31.51;47.40;101390.31;1547875;91;21108;-47
2021/07/13 09:41:17;;;;;;;20.15;18.02;;;;;;;31.53;47.30;101393.70;1548946;91;20480;-49
2021/07/13 09:43:53;;;;;;;11.05;10.03;;;;;;;31.53;47.20;101393.70;1543420;91;22558;-49
2021/07/13 09:46:39;;;;;;;8.55;7.72;;;;;;;31.54;47.36;101396.75;1527880;92;21121;-49
2021/07/13 09:49:26;;;;;;;8.73;7.62;;;;;;;31.58;47.11;101401.31;1445187;99;21077;-49
2021/07/13 09:52:02;;;;;;;8.60;7.70;;;;;;;31.58;46.94;101398.13;1444601;98;21197;-50
2021/07/13 09:54:34;;;;;;;8.95;8.05;;;;;;;31.57;46.96;101400.50;1445468;97;21169;-50
2021/07/13 09:57:07;;;;;;;;;;;;;;;31.58;47.04;101407.55;1445989;99;21078;-53
2021/07/13 09:59:35;;;;;;;10.70;7.70;;;;;;;31.59;47.09;101405.72;1383138;103;20469;-50
2021/07/13 10:02:04;;;;;;;11.05;8.78;;;;;;;31.60;47.25;101411.42;1383506;102;21091;-50
2021/07/13 10:04:32;;;;;;;9.63;7.53;;;;;;;31.62;47.41;101414.31;1384041;102;21238;-48
2021/07/13 10:07:11;;;;;;;8.10;7.40;;;;;;;31.64;47.29;101413.66;1385393;102;21172;-49
2021/07/13 10:09:49;;;;;;;9.75;7.70;;;;;;;31.68;47.46;101412.36;1348366;104;21585;-49
2021/07/13 10:12:22;;;;;;;8.70;7.70;;;;;;;31.76;47.73;101408.39;1354265;104;21671;-50
2021/07/13 10:14:55;;;;;;;11.03;7.78;;;;;;;31.84;47.35;101408.47;1337386;107;21411;-48
2021/07/13 10:17:28;;;;;;;8.10;7.40;;;;;;;31.93;47.46;101412.11;1324257;107;21158;-52
2021/07/13 10:20:09;;;;;;;41.37;10.65;;;;;;;32.00;47.46;101414.05;1357388;105;21258;-49
2021/07/13 10:22:40;;;;;;;8.83;7.87;;;;;;;32.04;47.12;101414.08;1357805;104;21221;-52
2021/07/13 10:25:08;;;;;;;9.13;8.15;;;;;;;32.09;47.27;101410.41;1350548;104;21668;-51
2021/07/13 10:27:39;;;;;;;8.50;7.60;;;;;;;32.16;47.13;101415.16;1359094;104;21128;-51
2021/07/13 10:30:12;;;;;;;9.43;7.33;;;;;;;32.22;46.99;101411.84;1319703;107;21779;-50
2021/07/13 10:32:41;;;;;;;9.63;7.95;;;;;;;32.28;46.71;101413.91;1303427;109;21186;-50
2021/07/13 10:35:24;;;;;;;30.65;25.43;;;;;;;32.31;46.48;101416.30;1284315;109;21218;-49
2021/07/13 10:38:20;;;;;;;65.32;54.83;;;;;;;32.33;46.26;101414.30;1286673;111;21304;-49
2021/07/13 10:40:45;;;;;;;56.13;50.25;;;;;;;32.33;45.91;101414.30;1285993;110;21683;-51
2021/07/13 10:43:20;;;;;;;14.68;13.28;;;;;;;32.34;46.07;101420.00;1312554;105;21749;-51
2021/07/13 10:46:07;;;;;;;12.82;7.65;;;;;;;32.34;45.92;101418.66;1333209;105;21170;-49
2021/07/13 10:48:34;;;;;;;22.87;14.98;;;;;;;32.34;46.05;101422.70;1322776;107;21136;-49
2021/07/13 10:51:05;;;;;;;9.75;8.60;;;;;;;32.33;45.64;101423.72;1348895;105;21174;-49
2021/07/13 10:53:42;;;;;;;8.45;7.65;;;;;;;32.33;45.50;101419.68;1324060;106;21206;-48
2021/07/13 10:56:17;;;;;;;7.45;6.75;;;;;;;32.33;44.93;101415.15;1338269;105;21205;-51
2021/07/13 10:58:54;;;;;;;8.00;7.20;;;;;;;32.35;45.15;101410.45;1342786;105;21683;-49
2021/07/13 11:01:34;;;;;;;9.05;7.50;;;;;;;32.39;44.89;101409.63;1351651;104;21158;-54
2021/07/13 11:04:06;;;;;;;9.33;7.53;;;;;;;32.41;45.10;101415.20;1385463;102;21646;-52
2021/07/13 11:06:49;;;;;;;12.15;7.90;;;;;;;32.43;44.79;101410.50;1369511;103;21141;-47
2021/07/13 11:09:20;;;;;;;7.28;6.67;;;;;;;32.45;45.11;101408.98;1376250;103;21151;-50
2021/07/13 11:11:47;;;;;;;8.08;6.92;;;;;;;32.48;45.14;101418.97;1390989;100;21196;-49
2021/07/13 11:14:15;;;;;;;11.48;7.33;;;;;;;32.50;45.36;101406.17;1414045;99;21207;-49
2021/07/13 11:16:47;;;;;;;7.83;7.10;;;;;;;32.54;45.72;101409.42;1384904;101;21745;-48
2021/07/13 11:19:16;;;;;;;11.12;9.83;;;;;;;32.55;45.84;101416.48;1384376;102;21144;-49
2021/07/13 11:21:50;;;;;;;8.85;7.83;;;;;;;32.56;45.98;101418.19;1380515;102;21231;-50
2021/07/13 11:24:21;;;;;;;14.13;7.87;;;;;;;32.59;46.13;101417.86;1398068;101;21128;-51
2021/07/13 11:26:53;;;;;;;8.55;7.50;;;;;;;32.62;45.67;101417.55;1414698;100;21128;-50
2021/07/13 11:29:26;;;;;;;8.38;7.28;;;;;;;32.65;45.80;101421.26;1459960;96;21091;-49
2021/07/13 11:31:59;;;;;;;8.10;7.30;;;;;;;32.64;45.37;101418.23;1485830;96;21118;-52